TimeMST,TemperatureF,Dew PointF,Humidity,Sea Level PressureIn,VisibilityMPH,Wind Direction,Wind SpeedMPH,Gust SpeedMPH,PrecipitationIn,Events,Conditions,WindDirDegrees,DateUTC
12:15 AM,17.6,12.2,79,30.12,10.0,Calm,Calm,-,N/A,,Overcast,0,2012-12-31 07:15:00
12:35 AM,17.6,14.0,86,30.12,10.0,East,3.5,-,N/A,,Overcast,100,2012-12-31 07:35:00
12:55 AM,17.6,12.2,79,30.12,10.0,South,3.5,-,N/A,,Overcast,170,2012-12-31 07:55:00
1:15 AM,17.6,12.2,79,30.12,10.0,Calm,Calm,-,N/A,,Overcast,0,2012-12-31 08:15:00
1:35 AM,17.6,12.2,79,30.13,10.0,Calm,Calm,-,N/A,,Overcast,0,2012-12-31 08:35:00
1:55 AM,17.6,12.2,79,30.13,10.0,Calm,Calm,-,N/A,,Overcast,0,2012-12-31 08:55:00
2:15 AM,15.8,8.6,73,30.13,10.0,NNE,8.1,-,N/A,,Overcast,30,2012-12-31 09:15:00
2:35 AM,14.0,8.6,79,30.13,10.0,NNE,8.1,-,N/A,,Overcast,20,2012-12-31 09:35:00
2:55 AM,14.0,8.6,79,30.13,10.0,NNE,6.9,-,N/A,,Overcast,20,2012-12-31 09:55:00
3:15 AM,12.2,8.6,85,30.13,10.0,NNE,8.1,-,N/A,,Overcast,20,2012-12-31 10:15:00
3:55 AM,12.2,8.6,85,30.13,10.0,North,5.8,-,N/A,,Overcast,10,2012-12-31 10:55:00
4:15 AM,14.0,8.6,79,30.13,10.0,North,3.5,-,N/A,,Overcast,10,2012-12-31 11:15:00
4:35 AM,12.2,8.6,85,30.12,10.0,North,3.5,-,N/A,,Overcast,10,2012-12-31 11:35:00
4:55 AM,14.0,8.6,79,30.11,10.0,Calm,Calm,-,N/A,,Overcast,0,2012-12-31 11:55:00
5:35 AM,15.8,10.4,79,30.11,10.0,Calm,Calm,-,N/A,,Overcast,0,2012-12-31 12:35:00
5:55 AM,15.8,10.4,79,30.11,10.0,North,3.5,-,N/A,,Overcast,360,2012-12-31 12:55:00
6:35 AM,15.8,10.4,79,30.11,10.0,North,3.5,-,N/A,,Overcast,10,2012-12-31 13:35:00
6:55 AM,14.0,10.4,86,30.10,8.0,Calm,Calm,-,N/A,,Overcast,0,2012-12-31 13:55:00
7:15 AM,15.8,12.2,86,30.10,9.0,NNE,4.6,-,N/A,,Overcast,20,2012-12-31 14:15:00
7:35 AM,14.0,10.4,86,30.10,10.0,NNE,6.9,-,N/A,,Overcast,20,2012-12-31 14:35:00
8:15 AM,14.0,10.4,86,30.10,10.0,North,5.8,-,N/A,,Overcast,10,2012-12-31 15:15:00
8:35 AM,15.8,10.4,79,30.10,10.0,North,4.6,-,N/A,,Overcast,10,2012-12-31 15:35:00
8:55 AM,15.8,10.4,79,30.09,10.0,NNE,4.6,-,N/A,,Overcast,30,2012-12-31 15:55:00
9:15 AM,15.8,10.4,79,30.09,10.0,NNE,5.8,-,N/A,,Overcast,30,2012-12-31 16:15:00
9:35 AM,15.8,10.4,79,30.09,10.0,North,4.6,-,N/A,,Overcast,360,2012-12-31 16:35:00
9:55 AM,15.8,12.2,86,30.10,10.0,North,4.6,-,N/A,,Overcast,10,2012-12-31 16:55:00
10:15 AM,17.6,12.2,79,30.10,10.0,NNE,4.6,-,N/A,,Overcast,20,2012-12-31 17:15:00
10:35 AM,19.4,14.0,80,30.10,10.0,NNE,4.6,-,N/A,,Overcast,20,2012-12-31 17:35:00
10:55 AM,19.4,15.8,86,30.09,3.0,NNE,4.6,-,N/A,,Overcast,30,2012-12-31 17:55:00
11:15 AM,19.4,15.8,86,30.09,2.0,Calm,Calm,-,N/A,,Overcast,0,2012-12-31 18:15:00
11:35 AM,19.4,15.8,86,30.09,1.5,North,3.5,-,N/A,,Overcast,10,2012-12-31 18:35:00
12:15 PM,19.4,15.8,86,30.07,1.2,North,3.5,-,N/A,,Overcast,360,2012-12-31 19:15:00
12:35 PM,19.4,15.8,86,30.07,1.0,North,4.6,-,N/A,,Overcast,360,2012-12-31 19:35:00
12:55 PM,19.4,17.6,93,30.06,1.0,Calm,Calm,-,N/A,,Overcast,0,2012-12-31 19:55:00
1:15 PM,21.2,17.6,86,30.05,1.5,Calm,Calm,-,N/A,,Overcast,0,2012-12-31 20:15:00
1:35 PM,21.2,17.6,86,30.05,1.8,East,4.6,-,N/A,,Overcast,100,2012-12-31 20:35:00
1:55 PM,21.2,17.6,86,30.05,4.0,East,3.5,-,N/A,,Overcast,90,2012-12-31 20:55:00
2:15 PM,21.2,17.6,86,30.05,3.0,East,4.6,-,N/A,,Overcast,100,2012-12-31 21:15:00
2:35 PM,21.2,17.6,86,30.05,3.0,East,4.6,-,N/A,,Overcast,100,2012-12-31 21:35:00
2:55 PM,21.2,19.4,93,30.06,5.0,East,3.5,-,N/A,,Overcast,100,2012-12-31 21:55:00
3:35 PM,21.2,17.6,86,30.06,10.0,Calm,Calm,-,N/A,,Overcast,0,2012-12-31 22:35:00
3:55 PM,21.2,17.6,86,30.06,9.0,East,3.5,-,N/A,,Overcast,100,2012-12-31 22:55:00
4:15 PM,21.2,17.6,86,30.07,10.0,East,3.5,-,N/A,,Overcast,100,2012-12-31 23:15:00
4:35 PM,19.4,15.8,86,30.07,10.0,Calm,Calm,-,N/A,,Overcast,0,2012-12-31 23:35:00
4:55 PM,19.4,17.6,93,30.07,10.0,Calm,Calm,-,N/A,,Overcast,0,2012-12-31 23:55:00
6:15 PM,19.4,17.6,93,30.07,10.0,NW,3.5,-,N/A,,Overcast,310,2013-01-01 01:15:00
6:35 PM,21.2,19.4,93,30.08,10.0,Calm,Calm,-,N/A,,Overcast,0,2013-01-01 01:35:00
7:35 PM,19.4,17.6,93,30.07,10.0,Calm,Calm,-,N/A,,Overcast,0,2013-01-01 02:35:00
7:55 PM,19.4,17.6,93,30.08,9.0,Calm,Calm,-,N/A,,Overcast,0,2013-01-01 02:55:00
8:15 PM,19.4,17.6,93,30.08,9.0,Calm,Calm,-,N/A,,Overcast,0,2013-01-01 03:15:00
8:35 PM,19.4,17.6,93,30.08,7.0,Calm,Calm,-,N/A,,Overcast,0,2013-01-01 03:35:00
9:15 PM,19.4,17.6,93,30.08,10.0,Calm,Calm,-,N/A,,Overcast,0,2013-01-01 04:15:00
9:35 PM,19.4,17.6,93,30.08,10.0,Calm,Calm,-,N/A,,Overcast,0,2013-01-01 04:35:00
10:15 PM,19.4,17.6,93,30.09,10.0,Calm,Calm,-,N/A,,Overcast,0,2013-01-01 05:15:00
10:35 PM,19.4,15.8,86,30.09,9.0,Calm,Calm,-,N/A,,Overcast,0,2013-01-01 05:35:00
10:55 PM,19.4,17.6,93,30.10,9.0,Calm,Calm,-,N/A,,Overcast,0,2013-01-01 05:55:00
11:15 PM,19.4,17.6,93,30.09,8.0,SSW,3.5,-,N/A,,Overcast,200,2013-01-01 06:15:00
11:35 PM,19.4,17.6,93,30.09,8.0,SSW,4.6,-,N/A,,Overcast,210,2013-01-01 06:35:00
11:55 PM,19.4,17.6,93,30.09,9.0,Calm,Calm,-,N/A,,Overcast,0,2013-01-01 06:55:00